Time;durP1;ratioP1;P1;durP2;ratioP2;P2;SDS_P1;SDS_P2;PMS_P1;PMS_P2;Temp;Humidity;BMP_temperature;BMP_pressure;BME280_temperature;BME280_humidity;BME280_pressure;Samples;Min_cycle;Max_cycle;Signal;HPM_P1;HPM_P2
2021/01/05 00:00:20;;;;;;;3.47;3.17;;;17.00;27.40;;;;;;5115863;28;20405;-61
2021/01/05 00:02:51;;;;;;;3.10;2.80;;;16.90;27.30;;;;;;5116252;28;20260;-61
2021/01/05 00:05:16;;;;;;;3.10;2.90;;;16.90;27.30;;;;;;5115799;28;20299;-61
2021/01/05 00:07:42;;;;;;;3.00;2.77;;;16.90;27.30;;;;;;5097184;28;20663;-61
2021/01/05 00:10:09;;;;;;;5.67;3.20;;;16.90;27.90;;;;;;5115539;28;20597;-61
2021/01/05 00:12:35;;;;;;;3.08;2.88;;;16.90;27.30;;;;;;5115838;28;20192;-61
2021/01/05 00:15:03;;;;;;;3.07;2.83;;;16.90;27.40;;;;;;5115645;28;20180;-61
2021/01/05 00:17:29;;;;;;;2.95;2.50;;;16.90;27.30;;;;;;5115573;28;20232;-61
2021/01/05 00:19:54;;;;;;;3.53;3.23;;;16.90;27.30;;;;;;5115631;28;20216;-61
2021/01/05 00:22:20;;;;;;;3.50;3.20;;;16.90;27.40;;;;;;5115171;28;20196;-61
2021/01/05 00:24:49;;;;;;;2.70;2.50;;;16.90;27.40;;;;;;5097262;28;20622;-61
2021/01/05 00:27:15;;;;;;;2.97;2.40;;;16.90;27.30;;;;;;5097414;28;20237;-61
2021/01/05 00:29:41;;;;;;;2.93;2.73;;;16.90;27.30;;;;;;5097373;28;20620;-61
2021/01/05 00:32:15;;;;;;;3.88;3.47;;;16.90;27.30;;;;;;5115673;28;20407;-61
2021/01/05 00:34:42;;;;;;;3.65;2.72;;;16.90;27.30;;;;;;5115464;28;20167;-61
2021/01/05 00:37:08;;;;;;;3.30;3.00;;;16.90;27.30;;;;;;5114700;28;20153;-61
2021/01/05 00:39:34;;;;;;;2.93;2.70;;;16.90;27.30;;;;;;5115265;28;20508;-61
2021/01/05 00:42:00;;;;;;;3.47;3.17;;;16.90;27.30;;;;;;5115139;28;20532;-61
2021/01/05 00:44:25;;;;;;;2.85;2.40;;;16.90;27.30;;;;;;5115254;28;20153;-61
2021/01/05 00:46:51;;;;;;;5.23;3.17;;;16.90;27.30;;;;;;5115117;28;20161;-60
2021/01/05 00:49:20;;;;;;;3.10;2.80;;;16.90;27.30;;;;;;5114942;28;20214;-61
2021/01/05 00:51:48;;;;;;;3.00;2.78;;;16.90;27.30;;;;;;5115034;28;20185;-61
2021/01/05 00:54:14;;;;;;;3.53;3.22;;;16.90;27.30;;;;;;5114371;28;20158;-61
2021/01/05 00:56:39;;;;;;;4.07;3.67;;;16.90;27.30;;;;;;5114975;28;20516;-61
2021/01/05 00:59:06;;;;;;;2.63;2.43;;;16.90;27.30;;;;;;5114884;28;20157;-61
2021/01/05 01:01:32;;;;;;;3.42;3.15;;;16.90;27.30;;;;;;5114877;28;20176;-61
2021/01/05 01:03:57;;;;;;;4.37;3.23;;;16.90;27.30;;;;;;5114566;28;20220;-60
2021/01/05 01:06:24;;;;;;;3.50;3.20;;;16.90;27.30;;;;;;5114796;28;20632;-60
2021/01/05 01:08:50;;;;;;;2.75;2.55;;;16.90;27.30;;;;;;5114120;28;20172;-60
2021/01/05 01:11:18;;;;;;;2.67;2.43;;;16.90;27.30;;;;;;5114747;28;20508;-60
2021/01/05 01:13:45;;;;;;;2.67;2.47;;;16.90;27.30;;;;;;5114708;28;20395;-61
2021/01/05 01:16:13;;;;;;;2.85;2.33;;;16.90;27.30;;;;;;5114406;28;20183;-61
2021/01/05 01:18:38;;;;;;;3.15;2.95;;;16.90;27.30;;;;;;5114603;28;20187;-61
2021/01/05 01:21:04;;;;;;;4.13;3.10;;;16.90;27.30;;;;;;5114402;28;20339;-61
2021/01/05 01:23:30;;;;;;;3.23;2.93;;;16.90;27.30;;;;;;5114073;28;20223;-61
2021/01/05 01:25:56;;;;;;;3.20;2.90;;;16.90;27.30;;;;;;5114538;28;20160;-61
2021/01/05 01:28:21;;;;;;;3.27;2.97;;;16.90;27.30;;;;;;5114416;28;20161;-61
2021/01/05 01:30:47;;;;;;;2.40;2.20;;;16.90;27.30;;;;;;5114213;28;20164;-61
2021/01/05 01:33:13;;;;;;;3.60;2.40;;;16.90;27.30;;;;;;5096252;28;20513;-61
2021/01/05 01:35:41;;;;;;;3.47;2.97;;;16.90;27.30;;;;;;5096182;28;20643;-61
2021/01/05 01:38:07;;;;;;;3.40;3.10;;;16.90;27.30;;;;;;5095933;28;20153;-61
2021/01/05 01:40:41;;;;;;;2.50;2.30;;;16.90;27.30;;;;;;5114297;28;20161;-60
2021/01/05 01:43:08;;;;;;;3.10;2.80;;;16.90;27.30;;;;;;5114144;28;20227;-61
2021/01/05 01:45:34;;;;;;;2.70;2.50;;;16.90;27.30;;;;;;5114178;28;20227;-61
2021/01/05 01:48:06;;;;;;;2.92;2.63;;;16.90;27.30;;;;;;5114101;28;20157;-61
2021/01/05 01:50:34;;;;;;;3.53;2.97;;;16.90;27.30;;;;;;5114062;28;20655;-60
2021/01/05 01:53:02;;;;;;;3.17;2.88;;;16.90;27.30;;;;;;5113622;28;20160;-61
2021/01/05 01:56:00;;;;;;;2.80;2.60;;;16.90;27.30;;;;;;5114123;28;20197;-61
2021/01/05 01:58:56;;;;;;;3.17;2.78;;;16.90;27.30;;;;;;5114041;28;20209;-60
2021/01/05 02:01:27;;;;;;;2.63;2.42;;;16.90;27.30;;;;;;5114015;28;20252;-61
2021/01/05 02:04:20;;;;;;;3.67;3.08;;;16.90;27.30;;;;;;5113850;28;20287;-60
2021/01/05 02:06:54;;;;;;;3.05;2.85;;;16.90;27.30;;;;;;5113968;28;20235;-61
2021/01/05 02:09:44;;;;;;;3.03;2.72;;;16.90;27.30;;;;;;5113822;28;20622;-61
2021/01/05 02:12:35;;;;;;;3.53;3.22;;;16.90;27.40;;;;;;5113837;28;20154;-61
2021/01/05 02:15:36;;;;;;;2.67;2.47;;;16.80;27.30;;;;;;5114087;28;20156;-61
2021/01/05 02:18:26;;;;;;;3.35;2.92;;;16.90;27.40;;;;;;5113943;28;20165;-61
2021/01/05 02:20:56;;;;;;;2.67;2.47;;;16.90;27.30;;;;;;5113628;28;20224;-61
2021/01/05 02:24:16;;;;;;;3.60;3.30;;;16.80;27.30;;;;;;5113388;28;20236;-61
2021/01/05 02:27:02;;;;;;;3.42;3.20;;;16.90;27.40;;;;;;5031156;28;20267;-61
2021/01/05 02:29:34;;;;;;;2.63;2.35;;;16.90;27.40;;;;;;5107882;28;20176;-61
2021/01/05 02:32:25;;;;;;;3.25;2.58;;;16.90;27.30;;;;;;5113676;28;20153;-61
2021/01/05 02:35:02;;;;;;;2.65;2.45;;;16.80;27.30;;;;;;5113842;28;20175;-61
2021/01/05 02:38:01;;;;;;;3.40;3.10;;;16.90;27.40;;;;;;5113226;28;20168;-61
2021/01/05 02:40:49;;;;;;;2.90;2.60;;;16.90;27.30;;;;;;5113727;28;20158;-61
2021/01/05 02:43:51;;;;;;;2.60;2.40;;;16.90;27.30;;;;;;5131521;27;20643;-61
2021/01/05 02:46:40;;;;;;;3.40;3.10;;;16.90;27.40;;;;;;5117508;28;20201;-61
2021/01/05 02:49:40;;;;;;;3.22;2.90;;;16.80;27.30;;;;;;5117233;28;20169;-60
2021/01/05 02:52:40;;;;;;;3.05;2.25;;;16.90;27.40;;;;;;5102427;28;20209;-61
2021/01/05 02:55:12;;;;;;;3.78;2.38;;;16.80;27.30;;;;;;5117349;28;20210;-61
2021/01/05 02:58:00;;;;;;;2.75;2.45;;;16.80;27.30;;;;;;5117294;28;20219;-61
2021/01/05 03:00:31;;;;;;;3.15;2.85;;;16.80;27.40;;;;;;5098857;28;20263;-61
2021/01/05 03:03:22;;;;;;;2.67;2.47;;;16.80;27.30;;;;;;5117164;28;20656;-61
2021/01/05 03:05:51;;;;;;;4.57;3.00;;;16.80;27.30;;;;;;5117149;28;20157;-61
2021/01/05 03:08:25;;;;;;;3.53;2.72;;;16.80;27.40;;;;;;5116527;28;20605;-61
2021/01/05 03:11:01;;;;;;;2.75;2.47;;;16.90;27.40;;;;;;5117187;28;20144;-61
2021/01/05 03:13:30;;;;;;;3.58;2.85;;;16.80;27.40;;;;;;5116863;28;20167;-61
2021/01/05 03:16:02;;;;;;;3.22;2.92;;;16.80;27.40;;;;;;5117025;28;20508;-61
2021/01/05 03:18:46;;;;;;;2.63;2.42;;;16.80;27.30;;;;;;5098464;28;20177;-61
2021/01/05 03:21:33;;;;;;;2.85;2.42;;;16.80;27.30;;;;;;5117202;28;20201;-61
2021/01/05 03:24:00;;;;;;;2.80;2.30;;;16.90;27.40;;;;;;5116555;28;20195;-61
2021/01/05 03:26:35;;;;;;;2.72;2.40;;;16.90;27.40;;;;;;5117084;28;20203;-61
2021/01/05 03:29:02;;;;;;;2.85;2.55;;;16.90;27.40;;;;;;5116751;28;20210;-61
2021/01/05 03:31:33;;;;;;;3.00;2.70;;;16.90;27.40;;;;;;5098669;28;20161;-61
2021/01/05 03:34:01;;;;;;;2.45;2.25;;;16.90;27.40;;;;;;5098121;28;20157;-60
2021/01/05 03:36:27;;;;;;;2.92;2.63;;;16.90;27.40;;;;;;5116484;28;20160;-62
2021/01/05 03:38:53;;;;;;;2.30;2.10;;;16.90;27.40;;;;;;5116067;28;20240;-60
2021/01/05 03:41:19;;;;;;;2.87;2.57;;;16.90;27.40;;;;;;5116400;28;20268;-61
2021/01/05 03:43:44;;;;;;;3.00;2.70;;;16.90;27.40;;;;;;5116261;28;20157;-61
2021/01/05 03:46:11;;;;;;;2.63;2.43;;;16.90;27.40;;;;;;5116274;28;20157;-60
2021/01/05 03:48:37;;;;;;;3.78;2.80;;;16.90;27.40;;;;;;5097924;28;20161;-60
2021/01/05 03:51:03;;;;;;;2.27;2.10;;;16.90;27.40;;;;;;5098319;28;20198;-61
2021/01/05 03:53:28;;;;;;;3.07;2.77;;;17.00;27.40;;;;;;5115618;28;20402;-61
2021/01/05 03:55:55;;;;;;;2.60;2.37;;;16.90;27.40;;;;;;5098006;28;20678;-61
2021/01/05 03:58:20;;;;;;;3.78;3.22;;;16.90;27.40;;;;;;5116090;28;20493;-61
2021/01/05 04:00:46;;;;;;;3.00;2.73;;;16.90;27.40;;;;;;5116177;28;20524;-61
2021/01/05 04:03:12;;;;;;;2.50;2.30;;;16.90;27.40;;;;;;5116018;28;20153;-61
2021/01/05 04:05:37;;;;;;;2.73;2.53;;;16.90;27.90;;;;;;5115941;28;20242;-61
2021/01/05 04:08:03;;;;;;;2.77;2.57;;;16.90;27.40;;;;;;5115553;28;20208;-61
2021/01/05 04:10:29;;;;;;;2.97;2.17;;;16.90;27.40;;;;;;5115773;28;20152;-61
2021/01/05 04:12:55;;;;;;;2.73;2.53;;;16.90;27.40;;;;;;5115920;28;20179;-61
2021/01/05 04:15:31;;;;;;;2.70;2.43;;;16.90;27.40;;;;;;5115912;28;20415;-61
2021/01/05 04:17:59;;;;;;;3.00;2.70;;;16.90;27.30;;;;;;5115457;28;20153;-61
2021/01/05 04:20:27;;;;;;;3.15;2.95;;;16.90;27.30;;;;;;5115563;28;20173;-61
2021/01/05 04:22:53;;;;;;;2.90;2.65;;;16.90;27.30;;;;;;5115274;28;20191;-61
2021/01/05 04:25:20;;;;;;;3.27;2.93;;;16.90;27.40;;;;;;5115871;28;20181;-61
2021/01/05 04:27:50;;;;;;;3.25;2.95;;;16.90;27.30;;;;;;5115374;28;20406;-61
2021/01/05 04:30:25;;;;;;;2.63;2.42;;;16.90;27.90;;;;;;5115441;28;20188;-61
2021/01/05 04:32:53;;;;;;;2.90;2.58;;;16.90;27.30;;;;;;5115413;28;20304;-61
2021/01/05 04:35:21;;;;;;;2.60;2.40;;;16.90;27.30;;;;;;5115603;28;20154;-62
2021/01/05 04:37:47;;;;;;;3.15;2.30;;;16.90;27.30;;;;;;5114744;28;20194;-62
2021/01/05 04:40:40;;;;;;;3.40;2.97;;;16.90;27.30;;;;;;5115330;28;20244;-62
2021/01/05 04:43:13;;;;;;;2.97;2.75;;;16.90;27.30;;;;;;5115571;28;20468;-62
2021/01/05 04:45:57;;;;;;;2.53;2.28;;;17.00;27.40;;;;;;5115228;28;20157;-62
2021/01/05 04:48:55;;;;;;;2.53;2.22;;;17.00;27.40;;;;;;5115115;28;20600;-61
2021/01/05 04:51:26;;;;;;;2.88;2.63;;;16.90;27.30;;;;;;5070073;28;20192;-62
2021/01/05 04:54:04;;;;;;;2.60;2.40;;;17.00;27.40;;;;;;5114765;28;20177;-62
2021/01/05 04:57:07;;;;;;;3.10;2.83;;;16.90;27.30;;;;;;5114954;28;20530;-62
2021/01/05 05:00:08;;;;;;;3.22;2.20;;;17.00;27.40;;;;;;5114831;28;20526;-62
2021/01/05 05:02:52;;;;;;;3.03;2.72;;;17.00;27.40;;;;;;5114543;28;20209;-62
2021/01/05 05:05:24;;;;;;;2.75;2.55;;;17.00;27.30;;;;;;5114171;28;20240;-62
2021/01/05 05:07:54;;;;;;;2.63;2.42;;;17.00;27.30;;;;;;5114202;28;20537;-62
2021/01/05 05:10:40;;;;;;;2.85;2.65;;;17.00;27.30;;;;;;5114720;28;20156;-62
2021/01/05 05:13:17;;;;;;;2.47;2.28;;;17.00;27.30;;;;;;5114604;28;20159;-62
2021/01/05 05:16:09;;;;;;;2.40;2.20;;;17.00;27.30;;;;;;5114632;28;20235;-62
2021/01/05 05:18:50;;;;;;;4.00;2.83;;;17.00;27.30;;;;;;5130377;27;20173;-61
2021/01/05 05:21:25;;;;;;;2.92;2.67;;;17.00;27.30;;;;;;5114437;28;20197;-60
2021/01/05 05:23:59;;;;;;;2.90;2.70;;;17.00;27.30;;;;;;5113972;28;20156;-62
2021/01/05 05:26:58;;;;;;;2.00;1.90;;;17.00;27.30;;;;;;5114381;28;20600;-60
2021/01/05 05:29:30;;;;;;;2.92;2.63;;;17.00;27.30;;;;;;5130404;27;20199;-60
2021/01/05 05:31:59;;;;;;;4.00;2.83;;;17.00;27.30;;;;;;5114381;28;20165;-61
2021/01/05 05:34:35;;;;;;;2.92;2.72;;;17.00;27.30;;;;;;5114533;28;20157;-61
2021/01/05 05:37:23;;;;;;;3.17;2.88;;;17.00;27.30;;;;;;5114014;28;20612;-62
2021/01/05 05:40:31;;;;;;;2.20;1.95;;;17.00;27.30;;;;;;5114368;28;20171;-61
2021/01/05 05:43:18;;;;;;;3.00;2.70;;;17.00;27.30;;;;;;5075691;28;20197;-61
2021/01/05 05:45:53;;;;;;;2.80;2.60;;;17.00;27.30;;;;;;5114169;28;20153;-61
2021/01/05 05:48:48;;;;;;;2.33;2.13;;;17.00;27.30;;;;;;5114085;28;20159;-61
2021/01/05 05:51:23;;;;;;;2.17;2.08;;;17.00;27.30;;;;;;5113967;28;20222;-61
2021/01/05 05:54:00;;;;;;;2.80;2.60;;;17.00;27.30;;;;;;5129444;27;20604;-61
2021/01/05 05:56:51;;;;;;;3.58;2.10;;;17.00;27.30;;;;;;5114134;28;20152;-61
2021/01/05 05:59:20;;;;;;;2.78;2.30;;;17.00;27.30;;;;;;5113963;28;20159;-61
2021/01/05 06:01:48;;;;;;;2.30;2.10;;;17.00;27.20;;;;;;5114020;28;20191;-61
2021/01/05 06:04:14;;;;;;;2.72;2.53;;;17.00;27.20;;;;;;5113778;28;20247;-61
2021/01/05 06:06:41;;;;;;;2.70;2.23;;;17.00;27.20;;;;;;5114129;28;20600;-61
2021/01/05 06:09:07;;;;;;;2.65;2.45;;;17.00;27.20;;;;;;5113578;28;20399;-61
2021/01/05 06:11:33;;;;;;;2.57;2.37;;;17.00;27.20;;;;;;5113948;28;20236;-61
2021/01/05 06:14:00;;;;;;;2.58;2.38;;;17.00;27.20;;;;;;5113783;28;20154;-61
2021/01/05 06:16:30;;;;;;;2.20;2.10;;;17.00;27.80;;;;;;5114373;28;20604;-61
2021/01/05 06:18:56;;;;;;;2.55;2.35;;;17.00;27.20;;;;;;5117874;28;20185;-61
2021/01/05 06:21:21;;;;;;;2.13;2.03;;;17.10;27.30;;;;;;5117723;28;20228;-61
2021/01/05 06:23:50;;;;;;;2.90;2.40;;;17.00;27.20;;;;;;5117108;28;20149;-61
2021/01/05 06:26:17;;;;;;;2.55;2.35;;;17.10;27.30;;;;;;5099430;28;20210;-61
2021/01/05 06:28:43;;;;;;;2.67;2.47;;;17.10;27.30;;;;;;5117807;28;20203;-61
2021/01/05 06:31:09;;;;;;;2.87;2.60;;;17.10;27.30;;;;;;5099275;28;20188;-61
2021/01/05 06:33:34;;;;;;;2.30;2.10;;;17.10;27.30;;;;;;5117683;28;20457;-61
2021/01/05 06:36:03;;;;;;;2.40;2.20;;;17.10;27.30;;;;;;5117565;28;20526;-61
2021/01/05 06:38:29;;;;;;;2.80;2.60;;;17.10;27.20;;;;;;5117089;28;20161;-61
2021/01/05 06:40:57;;;;;;;2.50;2.30;;;17.10;27.20;;;;;;5117403;28;20722;-61
2021/01/05 06:43:23;;;;;;;2.17;2.00;;;17.10;27.20;;;;;;5117545;28;20184;-61
2021/01/05 06:45:48;;;;;;;2.47;2.27;;;17.10;27.20;;;;;;5117614;28;20195;-61
2021/01/05 06:48:15;;;;;;;3.00;2.70;;;17.10;27.20;;;;;;5099231;28;20410;-61
2021/01/05 06:50:40;;;;;;;2.60;2.40;;;17.10;27.20;;;;;;5099550;28;20150;-61
2021/01/05 06:53:06;;;;;;;2.70;2.23;;;17.10;27.20;;;;;;5116749;28;20157;-61
2021/01/05 06:55:32;;;;;;;2.53;2.33;;;17.10;27.20;;;;;;5117096;28;20176;-61
2021/01/05 06:57:57;;;;;;;2.93;2.73;;;17.10;27.20;;;;;;5115633;28;20865;-61
2021/01/05 07:00:26;;;;;;;2.80;2.30;;;17.10;27.20;;;;;;5098948;28;20161;-61
2021/01/05 07:02:52;;;;;;;2.60;2.40;;;17.10;27.20;;;;;;5116809;28;20180;-61
2021/01/05 07:05:22;;;;;;;2.25;2.15;;;17.20;27.30;;;;;;5116649;28;20726;-61
2021/01/05 07:07:48;;;;;;;2.40;2.20;;;17.20;27.30;;;;;;5098393;28;20214;-61
2021/01/05 07:10:16;;;;;;;2.75;2.55;;;17.20;27.30;;;;;;5116624;28;20154;-61
2021/01/05 07:12:44;;;;;;;3.10;2.80;;;17.20;27.30;;;;;;5116749;28;20256;-61
2021/01/05 07:15:10;;;;;;;2.63;2.42;;;17.20;27.20;;;;;;5098575;28;20505;-61
2021/01/05 07:17:37;;;;;;;3.30;3.10;;;17.20;27.20;;;;;;5116723;28;20164;-61
2021/01/05 07:20:05;;;;;;;2.70;2.25;;;17.20;27.20;;;;;;5116655;28;20212;-61
2021/01/05 07:22:30;;;;;;;2.70;2.50;;;17.20;27.20;;;;;;5116135;28;20230;-61
2021/01/05 07:24:56;;;;;;;2.17;1.97;;;17.20;27.20;;;;;;5116736;28;20154;-61
2021/01/05 07:27:22;;;;;;;2.23;2.03;;;17.20;27.20;;;;;;5098053;28;20511;-61
2021/01/05 07:29:50;;;;;;;2.97;2.70;;;17.20;27.20;;;;;;5115767;28;20161;-61
2021/01/05 07:32:17;;;;;;;2.60;2.40;;;17.20;27.20;;;;;;5116360;28;20554;-61
2021/01/05 07:34:43;;;;;;;2.80;2.60;;;17.20;27.20;;;;;;5116523;28;20168;-61
2021/01/05 07:37:14;;;;;;;2.50;2.30;;;17.20;27.20;;;;;;5115958;28;20153;-61
2021/01/05 07:39:40;;;;;;;2.38;2.17;;;17.20;27.10;;;;;;5116305;28;20177;-61
2021/01/05 07:42:20;;;;;;;2.40;2.20;;;17.20;27.10;;;;;;5115956;28;20728;-61
2021/01/05 07:44:47;;;;;;;2.90;2.70;;;17.20;27.10;;;;;;5116188;28;20468;-61
2021/01/05 07:47:14;;;;;;;2.13;1.92;;;17.20;27.10;;;;;;5115899;28;20165;-61
2021/01/05 07:49:40;;;;;;;2.88;2.53;;;17.20;27.10;;;;;;5116227;28;20184;-61
2021/01/05 07:52:24;;;;;;;3.07;2.50;;;17.30;27.10;;;;;;5097268;28;20631;-61
2021/01/05 07:54:50;;;;;;;2.90;2.67;;;17.30;27.10;;;;;;5114728;28;20161;-60
2021/01/05 07:57:17;;;;;;;2.63;2.42;;;17.30;27.10;;;;;;5103475;27;20185;-60
2021/01/05 07:59:42;;;;;;;2.67;2.45;;;17.30;27.10;;;;;;5111245;27;20177;-60
2021/01/05 08:02:10;;;;;;;2.77;2.57;;;17.30;27.10;;;;;;5076749;28;20203;-61
2021/01/05 08:04:36;;;;;;;2.60;2.40;;;17.30;27.10;;;;;;5085693;27;20437;-61
2021/01/05 08:07:02;;;;;;;2.95;2.65;;;17.30;27.10;;;;;;5097979;28;20169;-61
2021/01/05 08:09:28;;;;;;;2.67;2.47;;;17.30;27.10;;;;;;5103292;27;20173;-62
2021/01/05 08:11:53;;;;;;;2.50;2.30;;;17.30;27.10;;;;;;5114672;28;20175;-61
2021/01/05 08:14:19;;;;;;;2.97;2.70;;;17.30;27.10;;;;;;5106153;27;20172;-61
2021/01/05 08:16:49;;;;;;;2.50;2.30;;;17.30;27.10;;;;;;5117318;27;20512;-61
2021/01/05 08:19:15;;;;;;;3.08;2.53;;;17.90;27.50;;;;;;5132764;27;20156;-61
2021/01/05 08:21:41;;;;;;;2.50;2.30;;;17.30;27.10;;;;;;5113223;28;20205;-61
2021/01/05 08:24:07;;;;;;;2.53;2.33;;;17.30;27.10;;;;;;5113968;28;20385;-61
2021/01/05 08:26:32;;;;;;;2.60;2.40;;;17.30;27.10;;;;;;5114358;28;20176;-61
2021/01/05 08:28:58;;;;;;;2.30;2.10;;;17.30;27.00;;;;;;5096943;28;20149;-61
2021/01/05 08:31:35;;;;;;;2.90;2.70;;;17.30;27.00;;;;;;5097082;28;20200;-63
2021/01/05 08:34:01;;;;;;;2.92;2.72;;;17.30;27.00;;;;;;5096898;28;20161;-61
2021/01/05 08:36:28;;;;;;;3.00;2.80;;;17.30;27.00;;;;;;5115063;28;20237;-61
2021/01/05 08:38:54;;;;;;;2.53;2.30;;;17.30;27.00;;;;;;5096295;28;20441;-63
2021/01/05 08:41:20;;;;;;;2.90;2.58;;;17.30;27.00;;;;;;5113933;28;20184;-62
2021/01/05 08:43:49;;;;;;;2.70;2.50;;;17.30;27.00;;;;;;5114930;28;20573;-62
2021/01/05 08:46:22;;;;;;;2.25;2.05;;;17.30;27.00;;;;;;5114987;28;20169;-61
2021/01/05 08:48:49;;;;;;;2.63;2.42;;;17.30;27.00;;;;;;5114757;28;20157;-62
2021/01/05 08:51:19;;;;;;;2.90;2.70;;;17.30;27.00;;;;;;5114791;28;20186;-62
2021/01/05 08:53:49;;;;;;;2.38;2.25;;;17.30;27.00;;;;;;5114236;28;20158;-62
2021/01/05 08:56:20;;;;;;;2.60;2.40;;;17.30;27.00;;;;;;5114590;28;20149;-62
2021/01/05 08:58:49;;;;;;;2.72;2.53;;;17.30;27.00;;;;;;5114561;28;20158;-61
2021/01/05 09:01:15;;;;;;;2.97;2.78;;;17.40;27.00;;;;;;5114340;28;20655;-61
2021/01/05 09:03:41;;;;;;;2.20;2.00;;;17.40;27.00;;;;;;5114294;28;20572;-61
2021/01/05 09:06:11;;;;;;;2.60;2.37;;;17.40;27.00;;;;;;5114406;28;20158;-61
2021/01/05 09:08:37;;;;;;;2.50;2.30;;;17.40;27.00;;;;;;5113948;28;20153;-61
2021/01/05 09:11:06;;;;;;;2.53;2.03;;;17.40;27.00;;;;;;5094154;28;20685;-61
2021/01/05 09:13:31;;;;;;;2.92;2.20;;;17.40;27.00;;;;;;5098922;28;20984;-61
2021/01/05 09:15:57;;;;;;;2.30;2.10;;;17.40;27.00;;;;;;5098914;28;20181;-61
2021/01/05 09:18:24;;;;;;;2.13;1.92;;;17.40;27.00;;;;;;5107976;27;20659;-61
2021/01/05 09:20:55;;;;;;;2.35;2.15;;;17.40;27.00;;;;;;5105182;28;20181;-61
2021/01/05 09:23:22;;;;;;;2.83;2.63;;;17.40;26.90;;;;;;5089480;28;20177;-61
2021/01/05 09:25:53;;;;;;;3.30;3.03;;;17.40;26.90;;;;;;5101913;28;20164;-61
2021/01/05 09:28:20;;;;;;;2.75;2.55;;;17.40;26.90;;;;;;5084051;28;20621;-62
2021/01/05 09:30:49;;;;;;;2.38;1.95;;;17.40;26.90;;;;;;5099393;28;20285;-62
2021/01/05 09:33:19;;;;;;;2.40;2.20;;;17.40;26.90;;;;;;5111211;28;20165;-62
2021/01/05 09:35:48;;;;;;;2.15;1.95;;;17.40;26.90;;;;;;5086688;28;20723;-62
2021/01/05 09:38:14;;;;;;;2.80;2.60;;;17.40;26.90;;;;;;5120888;27;20210;-62
2021/01/05 09:40:41;;;;;;;2.65;2.10;;;17.40;26.80;;;;;;5106341;28;20187;-62
2021/01/05 09:43:11;;;;;;;2.63;2.42;;;17.40;26.80;;;;;;5086513;28;20188;-62
2021/01/05 09:45:38;;;;;;;3.22;2.90;;;17.40;26.80;;;;;;5111777;28;20165;-62
2021/01/05 09:48:11;;;;;;;2.60;2.40;;;17.40;26.80;;;;;;5109438;28;20674;-62
2021/01/05 09:50:42;;;;;;;2.30;2.10;;;17.40;26.80;;;;;;5112845;28;20679;-62
2021/01/05 09:53:08;;;;;;;5.65;2.90;;;17.40;26.80;;;;;;5100133;28;20167;-62
2021/01/05 09:55:34;;;;;;;2.72;2.53;;;17.40;27.30;;;;;;5104553;28;20243;-62
2021/01/05 09:58:01;;;;;;;2.80;2.47;;;17.40;26.80;;;;;;5105886;28;20245;-62
2021/01/05 10:00:29;;;;;;;2.80;2.60;;;17.40;26.70;;;;;;5097036;28;20165;-61
2021/01/05 10:02:55;;;;;;;1.90;1.80;;;17.50;26.80;;;;;;5121762;27;20211;-61
2021/01/05 10:05:20;;;;;;;2.47;2.27;;;17.50;26.80;;;;;;5111299;28;20222;-61
2021/01/05 10:07:47;;;;;;;2.20;2.00;;;17.50;26.80;;;;;;5098927;28;20178;-61
2021/01/05 10:10:22;;;;;;;2.63;2.40;;;17.50;26.70;;;;;;5103731;28;20179;-61
2021/01/05 10:12:48;;;;;;;1.90;1.80;;;17.50;26.70;;;;;;5103312;28;20183;-61
2021/01/05 10:15:16;;;;;;;3.50;3.20;;;17.50;26.70;;;;;;5088795;28;20192;-61
2021/01/05 10:17:42;;;;;;;3.20;2.90;;;17.50;26.70;;;;;;5109542;28;20169;-63
2021/01/05 10:20:09;;;;;;;3.00;2.70;;;17.50;26.60;;;;;;5106122;28;20188;-61
2021/01/05 10:22:35;;;;;;;2.65;2.45;;;17.50;26.60;;;;;;5098280;28;20250;-62
2021/01/05 10:25:01;;;;;;;3.00;2.73;;;17.50;26.60;;;;;;5111991;28;20217;-62
2021/01/05 10:27:26;;;;;;;3.13;2.77;;;17.50;26.50;;;;;;5106310;28;20188;-62
2021/01/05 10:29:55;;;;;;;2.70;2.50;;;17.50;26.50;;;;;;5080195;28;20178;-62
2021/01/05 10:32:21;;;;;;;3.45;2.63;;;17.50;26.60;;;;;;5102903;28;20691;-62
2021/01/05 10:34:47;;;;;;;3.10;2.58;;;17.50;26.40;;;;;;5100555;28;20571;-62
2021/01/05 10:37:12;;;;;;;3.67;2.40;;;17.50;26.40;;;;;;5099914;28;20177;-62
2021/01/05 10:39:38;;;;;;;2.87;2.67;;;17.60;26.50;;;;;;5104813;28;20226;-62
2021/01/05 10:42:04;;;;;;;3.13;2.93;;;17.60;26.50;;;;;;5109931;28;20711;-62
2021/01/05 10:44:30;;;;;;;2.45;2.25;;;17.60;26.50;;;;;;5123278;28;20169;-62
2021/01/05 10:46:58;;;;;;;2.43;2.23;;;17.60;26.40;;;;;;5100896;28;20306;-62
2021/01/05 10:49:23;;;;;;;2.92;2.72;;;17.60;26.40;;;;;;5118453;27;20541;-62
2021/01/05 10:51:51;;;;;;;2.90;2.70;;;17.60;26.40;;;;;;5091825;28;20248;-61
2021/01/05 10:54:20;;;;;;;2.25;2.15;;;17.60;26.50;;;;;;5110084;28;20225;-62
2021/01/05 10:56:46;;;;;;;2.80;2.55;;;17.60;26.40;;;;;;5103654;28;20252;-62
2021/01/05 10:59:14;;;;;;;2.65;2.45;;;17.60;26.40;;;;;;5106394;28;20205;-62
2021/01/05 11:01:40;;;;;;;3.45;2.33;;;17.60;26.40;;;;;;5103207;28;20185;-62
2021/01/05 11:04:09;;;;;;;2.70;2.50;;;17.60;26.40;;;;;;5080746;28;20251;-61
2021/01/05 11:06:35;;;;;;;3.10;2.90;;;17.60;26.40;;;;;;5090817;28;20184;-62
2021/01/05 11:09:05;;;;;;;2.80;2.55;;;17.60;26.40;;;;;;5113850;28;20203;-62
2021/01/05 11:11:30;;;;;;;2.78;2.58;;;17.60;26.40;;;;;;5112532;27;20184;-61
2021/01/05 11:13:56;;;;;;;2.83;2.50;;;17.60;26.50;;;;;;5106046;28;20170;-62
2021/01/05 11:16:23;;;;;;;3.40;2.70;;;17.60;26.50;;;;;;5098887;28;20182;-61
2021/01/05 11:18:48;;;;;;;2.50;2.30;;;17.60;26.50;;;;;;5110089;28;20416;-61
2021/01/05 11:21:15;;;;;;;2.50;2.30;;;17.60;26.50;;;;;;5103438;27;20184;-62
2021/01/05 11:23:41;;;;;;;2.55;2.33;;;17.60;26.50;;;;;;5089642;28;20299;-62
2021/01/05 11:26:09;;;;;;;2.17;1.98;;;17.60;26.40;;;;;;5109134;28;20229;-63
2021/01/05 11:28:35;;;;;;;2.78;2.58;;;17.60;26.50;;;;;;5104428;28;20167;-62
2021/01/05 11:31:01;;;;;;;2.08;1.98;;;17.60;26.40;;;;;;5112138;28;20172;-62
2021/01/05 11:33:26;;;;;;;2.63;2.43;;;17.60;26.40;;;;;;5113372;28;20165;-62
2021/01/05 11:35:52;;;;;;;2.40;2.20;;;17.60;26.40;;;;;;5092901;28;20183;-62
2021/01/05 11:38:18;;;;;;;2.00;1.90;;;17.60;26.40;;;;;;5114561;28;20252;-64
2021/01/05 11:40:44;;;;;;;2.70;2.50;;;17.60;26.40;;;;;;5105460;28;20438;-62
2021/01/05 11:43:10;;;;;;;2.97;2.77;;;17.70;26.50;;;;;;5096521;28;20211;-61
2021/01/05 11:45:35;;;;;;;2.70;2.50;;;17.70;26.50;;;;;;5103921;28;20590;-61
2021/01/05 11:48:01;;;;;;;2.93;2.73;;;17.70;26.50;;;;;;5101264;28;20447;-62
2021/01/05 11:50:27;;;;;;;3.20;2.90;;;17.60;26.40;;;;;;5111553;28;20165;-61
2021/01/05 11:52:52;;;;;;;2.43;2.23;;;17.70;26.50;;;;;;5110341;28;20546;-61
2021/01/05 11:55:19;;;;;;;2.57;2.37;;;17.70;26.50;;;;;;5107239;27;20181;-62
2021/01/05 11:57:44;;;;;;;3.00;2.75;;;17.70;26.50;;;;;;5112530;28;20572;-62
2021/01/05 12:00:11;;;;;;;2.50;2.33;;;17.70;26.50;;;;;;5109918;28;20268;-61
2021/01/05 12:02:40;;;;;;;2.40;2.20;;;17.60;26.40;;;;;;5108510;28;20197;-61
2021/01/05 12:05:06;;;;;;;2.45;2.25;;;17.70;26.50;;;;;;5105116;28;20239;-62
2021/01/05 12:07:32;;;;;;;2.90;2.65;;;17.70;26.50;;;;;;5102188;28;20217;-61
2021/01/05 12:10:01;;;;;;;4.03;2.80;;;17.60;26.40;;;;;;5103089;28;20605;-62
2021/01/05 12:12:26;;;;;;;2.25;2.15;;;17.70;26.50;;;;;;5091867;28;20188;-61
2021/01/05 12:14:52;;;;;;;3.00;2.53;;;17.70;26.50;;;;;;5067450;28;20190;-60
2021/01/05 12:17:18;;;;;;;3.50;2.73;;;17.70;26.50;;;;;;5088913;28;20176;-61
2021/01/05 12:19:44;;;;;;;2.63;2.42;;;17.70;26.50;;;;;;5099670;27;20252;-62
2021/01/05 12:22:11;;;;;;;2.83;2.63;;;17.60;26.50;;;;;;5097679;28;20280;-62
2021/01/05 12:24:38;;;;;;;3.17;2.88;;;17.70;26.50;;;;;;5085590;28;20176;-62
2021/01/05 12:27:09;;;;;;;2.97;2.65;;;17.70;26.50;;;;;;5125876;27;20188;-62
2021/01/05 12:29:39;;;;;;;2.78;2.20;;;17.70;26.60;;;;;;5107302;28;20153;-62
2021/01/05 12:32:14;;;;;;;2.40;2.20;;;17.70;26.50;;;;;;5103036;28;20173;-62
2021/01/05 12:34:50;;;;;;;2.85;2.65;;;17.70;26.50;;;;;;5112107;28;20159;-63
2021/01/05 12:37:21;;;;;;;2.67;2.47;;;17.70;26.50;;;;;;5089710;28;20278;-62
2021/01/05 12:39:49;;;;;;;2.60;2.40;;;17.70;26.50;;;;;;5109106;28;20192;-62
2021/01/05 12:42:19;;;;;;;2.75;2.55;;;17.70;26.50;;;;;;5110805;28;20251;-61
2021/01/05 12:44:45;;;;;;;2.33;2.13;;;17.70;26.50;;;;;;5102508;28;20173;-62
2021/01/05 12:47:11;;;;;;;2.58;2.30;;;17.70;26.50;;;;;;5103731;28;20178;-61
2021/01/05 12:49:37;;;;;;;2.28;2.15;;;17.70;26.50;;;;;;5103403;28;20162;-61
2021/01/05 12:52:05;;;;;;;2.87;2.67;;;17.70;26.50;;;;;;5091144;28;20190;-61
2021/01/05 12:54:34;;;;;;;2.53;2.35;;;17.70;26.50;;;;;;5114033;28;20162;-61
2021/01/05 12:57:04;;;;;;;2.50;2.30;;;17.70;26.50;;;;;;5113517;28;20169;-62
2021/01/05 12:59:30;;;;;;;2.45;2.25;;;17.70;26.50;;;;;;5101228;27;20176;-62
2021/01/05 13:01:58;;;;;;;2.47;2.20;;;17.70;26.50;;;;;;5111831;28;20540;-62
2021/01/05 13:04:23;;;;;;;2.75;2.25;;;17.70;26.50;;;;;;5110195;27;20476;-62